createdAt,value
2023-03-31T00:02:15.436Z,118.99
2023-03-31T00:04:46.729Z,118.99
2023-03-31T00:07:16.205Z,118.99
2023-03-31T00:09:46.616Z,118.99
2023-03-31T00:12:14.722Z,118.99
2023-03-31T00:14:42.897Z,118.99
2023-03-31T00:17:10.698Z,118.99
2023-03-31T00:19:40.224Z,118.99
2023-03-31T00:22:07.249Z,118.99
2023-03-31T00:24:34.431Z,118.99
2023-03-31T00:27:03.039Z,118.99
2023-03-31T00:29:31.407Z,118.99
2023-03-31T00:31:59.793Z,118.99
2023-03-31T00:34:27.619Z,118.99
2023-03-31T00:36:57.925Z,118.99
2023-03-31T00:39:24.815Z,118.99
2023-03-31T00:41:51.842Z,118.99
2023-03-31T00:44:27.709Z,118.99
2023-03-31T00:47:12.916Z,118.99
2023-03-31T00:49:48.709Z,118.99
2023-03-31T00:52:22.546Z,118.99
2023-03-31T00:54:57.929Z,118.99
2023-03-31T00:57:28.655Z,118.99
2023-03-31T01:00:12.702Z,118.99
2023-03-31T01:02:41.688Z,118.99
2023-03-31T01:05:09.319Z,118.99
2023-03-31T01:07:43.383Z,118.99
2023-03-31T01:10:11.187Z,118.99
2023-03-31T01:12:41.100Z,118.99
2023-03-31T01:15:09.647Z,118.99
2023-03-31T01:17:37.474Z,118.99
2023-03-31T01:20:36.517Z,118.99
2023-03-31T01:23:31.278Z,118.99
2023-03-31T01:26:10.227Z,118.99
2023-03-31T01:28:39.879Z,118.99
2023-03-31T01:31:21.899Z,118.99
2023-03-31T01:34:01.044Z,118.99
2023-03-31T01:36:49.861Z,118.99
2023-03-31T01:39:40.998Z,118.99
2023-03-31T01:42:23.151Z,118.99
2023-03-31T01:45:01.345Z,118.99
2023-03-31T01:47:40.291Z,118.99
2023-03-31T01:50:24.866Z,118.99
2023-03-31T01:53:05.861Z,118.99
2023-03-31T01:55:54.993Z,118.99
2023-03-31T01:58:26.308Z,118.99
2023-03-31T02:01:03.734Z,118.99
2023-03-31T02:03:48.359Z,118.99
2023-03-31T02:06:20.536Z,118.99
2023-03-31T02:08:53.783Z,118.99
2023-03-31T02:11:21.869Z,118.99
2023-03-31T02:13:52.510Z,118.99
2023-03-31T02:16:26.645Z,118.99
2023-03-31T02:19:02.419Z,118.99
2023-03-31T02:21:36.886Z,118.99
2023-03-31T02:24:08.044Z,118.99
2023-03-31T02:26:41.512Z,118.99
2023-03-31T02:29:08.617Z,118.99
2023-03-31T02:31:44.859Z,118.99
2023-03-31T02:34:11.693Z,118.99
2023-03-31T02:36:38.647Z,118.99
2023-03-31T02:39:09.839Z,118.99
2023-03-31T02:41:37.418Z,118.99
2023-03-31T02:44:04.425Z,118.99
2023-03-31T02:46:32.085Z,118.99
2023-03-31T02:49:02.542Z,118.99
2023-03-31T02:52:11.537Z,118.99
2023-03-31T02:55:30.632Z,118.99
2023-03-31T02:58:31.695Z,118.99
2023-03-31T03:01:12.231Z,118.99
2023-03-31T03:03:51.214Z,118.99
2023-03-31T03:06:37.644Z,118.99
2023-03-31T03:09:35.173Z,118.99
2023-03-31T03:12:14.120Z,118.99
2023-03-31T03:14:51.521Z,118.99
2023-03-31T03:17:36.204Z,118.99
2023-03-31T03:20:09.499Z,118.99
2023-03-31T03:22:37.699Z,118.99
2023-03-31T03:25:06.207Z,118.99
2023-03-31T03:27:32.974Z,118.99
2023-03-31T03:29:59.829Z,118.99
2023-03-31T03:32:26.588Z,118.99
2023-03-31T03:34:53.346Z,118.99
2023-03-31T03:37:20.342Z,118.99
2023-03-31T03:39:47.306Z,118.99
2023-03-31T03:42:14.381Z,118.99
2023-03-31T03:44:41.165Z,118.99
2023-03-31T03:47:07.974Z,118.99
2023-03-31T03:49:34.806Z,118.99
2023-03-31T03:52:01.618Z,118.99
2023-03-31T03:54:28.368Z,118.99
2023-03-31T03:56:55.671Z,118.99
2023-03-31T03:59:22.609Z,118.99
2023-03-31T04:01:49.528Z,118.99
2023-03-31T04:04:16.519Z,118.99
2023-03-31T04:06:43.370Z,118.99
2023-03-31T04:09:10.664Z,118.99
2023-03-31T04:11:37.368Z,118.99
2023-03-31T04:14:04.237Z,118.99
2023-03-31T04:16:32.335Z,118.99
2023-03-31T04:18:59.745Z,118.99
2023-03-31T04:21:26.509Z,118.99
2023-03-31T04:24:04.747Z,118.99
2023-03-31T04:26:43.724Z,118.99
2023-03-31T04:29:16.275Z,118.99
2023-03-31T04:31:44.046Z,118.99
2023-03-31T04:34:13.761Z,118.99
2023-03-31T04:36:42.826Z,118.99
2023-03-31T04:39:12.962Z,118.99
2023-03-31T04:41:39.734Z,118.99
2023-03-31T04:44:06.718Z,118.99
2023-03-31T04:46:35.273Z,118.99
2023-03-31T04:49:02.877Z,118.99
2023-03-31T04:51:29.704Z,118.99
2023-03-31T04:53:56.692Z,118.99
2023-03-31T04:56:23.507Z,118.99
2023-03-31T04:58:50.282Z,118.99
2023-03-31T05:01:20.936Z,118.99
2023-03-31T05:03:48.295Z,118.99
2023-03-31T05:06:16.564Z,118.99
2023-03-31T05:08:44.347Z,118.99
2023-03-31T05:11:11.306Z,118.99
2023-03-31T05:13:38.249Z,118.99
2023-03-31T05:16:14.478Z,118.99
2023-03-31T05:18:41.968Z,118.99
2023-03-31T05:21:14.407Z,118.99
2023-03-31T05:23:42.055Z,118.99
2023-03-31T05:26:09.557Z,118.99
2023-03-31T05:28:36.440Z,118.99
2023-03-31T05:31:04.485Z,118.99
2023-03-31T05:33:31.712Z,118.99
2023-03-31T05:36:00.259Z,118.99
2023-03-31T05:38:31.624Z,118.99
2023-03-31T05:40:58.620Z,118.99
2023-03-31T05:43:25.724Z,118.99
2023-03-31T05:45:52.732Z,118.99
2023-03-31T05:48:19.757Z,118.99
2023-03-31T05:50:46.610Z,118.99
2023-03-31T05:53:13.404Z,118.99
2023-03-31T05:55:40.323Z,118.99
2023-03-31T05:58:09.046Z,118.99
2023-03-31T06:00:37.957Z,118.99
2023-03-31T06:03:07.881Z,118.99
2023-03-31T06:05:35.675Z,118.99
2023-03-31T06:08:02.605Z,118.99
2023-03-31T06:10:29.737Z,118.99
2023-03-31T06:12:56.604Z,118.99
2023-03-31T06:15:23.520Z,118.83
2023-03-31T06:17:50.312Z,117.99
2023-03-31T06:20:27.838Z,117.47
2023-03-31T06:22:55.502Z,118.95
2023-03-31T06:25:22.248Z,118.95
2023-03-31T06:27:49.004Z,118.27
2023-03-31T06:30:15.919Z,118.99
2023-03-31T06:32:42.643Z,118.24
2023-03-31T06:35:09.781Z,117.54
2023-03-31T06:37:36.594Z,118.69
2023-03-31T06:40:04.544Z,118.22
2023-03-31T06:42:31.838Z,118.53
2023-03-31T06:44:58.754Z,118.45
2023-03-31T06:47:25.569Z,118.57
2023-03-31T06:49:52.332Z,118.56
2023-03-31T06:52:19.247Z,118.99
2023-03-31T06:54:46.065Z,118.91
2023-03-31T06:57:13.202Z,118.99
2023-03-31T06:59:40.011Z,118.41
2023-03-31T07:02:07.594Z,117.43
2023-03-31T07:04:34.824Z,116.06
2023-03-31T07:07:01.978Z,114.91
2023-03-31T07:09:28.784Z,114.51
2023-03-31T07:11:56.604Z,114.16
2023-03-31T07:14:23.915Z,114.33
2023-03-31T07:16:50.959Z,115.25
2023-03-31T07:19:17.982Z,113.74
2023-03-31T07:21:45.044Z,112.59
2023-03-31T07:24:11.930Z,111.85
2023-03-31T07:26:38.660Z,113.45
2023-03-31T07:29:06.187Z,112.03
2023-03-31T07:31:33.114Z,112.48
2023-03-31T07:34:01.650Z,112.82
2023-03-31T07:36:28.923Z,112.85
2023-03-31T07:38:55.686Z,112.35
2023-03-31T07:41:23.214Z,110.84
2023-03-31T07:43:51.025Z,110.60
2023-03-31T07:46:19.274Z,112.23
2023-03-31T07:48:47.071Z,113.03
2023-03-31T07:51:19.535Z,114.71
2023-03-31T07:53:47.010Z,113.28
2023-03-31T07:56:13.861Z,113.19
2023-03-31T07:58:40.650Z,114.05
2023-03-31T08:01:08.271Z,113.29
2023-03-31T08:03:35.317Z,112.55
2023-03-31T08:06:02.256Z,111.46
2023-03-31T08:08:29.230Z,113.09
2023-03-31T08:10:55.933Z,113.23
2023-03-31T08:13:22.714Z,112.21
2023-03-31T08:15:49.589Z,112.23
2023-03-31T08:18:16.708Z,111.99
2023-03-31T08:20:43.481Z,111.89
2023-03-31T08:23:12.163Z,112.81
2023-03-31T08:25:38.936Z,112.54
2023-03-31T08:28:06.848Z,111.79
2023-03-31T08:30:33.840Z,112.03
2023-03-31T08:33:00.792Z,112.76
2023-03-31T08:35:27.649Z,112.03
2023-03-31T08:37:54.446Z,112.08
2023-03-31T08:40:25.345Z,112.06
2023-03-31T08:42:56.317Z,112.04
2023-03-31T08:45:34.321Z,112.00
2023-03-31T08:48:08.171Z,109.81
2023-03-31T08:50:39.488Z,107.40
2023-03-31T08:53:12.826Z,106.46
2023-03-31T08:55:51.665Z,105.72
2023-03-31T08:58:42.178Z,105.55
2023-03-31T09:01:17.024Z,105.40
2023-03-31T09:03:56.180Z,104.48
2023-03-31T09:06:32.598Z,104.05
2023-03-31T09:09:02.503Z,103.15
2023-03-31T09:11:40.051Z,103.02
2023-03-31T09:14:34.629Z,102.30
2023-03-31T09:17:24.545Z,99.65
2023-03-31T09:20:00.254Z,97.90
2023-03-31T09:22:32.405Z,95.93
2023-03-31T09:25:07.865Z,95.91
2023-03-31T09:27:37.465Z,96.39
2023-03-31T09:30:14.741Z,91.95
2023-03-31T09:32:41.786Z,90.21
2023-03-31T09:35:21.641Z,89.54
2023-03-31T09:37:49.649Z,89.74
2023-03-31T09:40:22.323Z,89.24
2023-03-31T09:42:57.164Z,87.99
2023-03-31T09:45:24.089Z,89.91
2023-03-31T09:47:54.955Z,91.13
2023-03-31T09:50:25.400Z,91.68
2023-03-31T09:52:56.535Z,91.48
2023-03-31T09:55:39.632Z,89.99
2023-03-31T09:58:11.922Z,89.06
2023-03-31T10:00:42.322Z,90.38
2023-03-31T10:03:13.349Z,90.41
2023-03-31T10:05:52.295Z,87.54
2023-03-31T10:08:28.147Z,87.37
2023-03-31T10:11:07.251Z,87.13
2023-03-31T10:13:58.818Z,88.98
2023-03-31T10:16:43.133Z,92.05
2023-03-31T10:19:31.755Z,93.56
2023-03-31T10:22:26.456Z,93.97
2023-03-31T10:24:53.864Z,96.20
2023-03-31T10:27:27.943Z,97.74
2023-03-31T10:30:03.025Z,96.98
2023-03-31T10:32:34.757Z,95.96
2023-03-31T10:35:08.794Z,98.21
2023-03-31T10:37:36.565Z,97.43
2023-03-31T10:40:23.526Z,97.65
2023-03-31T10:43:01.448Z,96.11
2023-03-31T10:45:37.816Z,95.58
2023-03-31T10:48:16.629Z,94.11
2023-03-31T10:50:43.691Z,92.06
2023-03-31T10:53:15.828Z,91.22
2023-03-31T10:56:08.045Z,89.51
2023-03-31T10:59:05.858Z,90.16
2023-03-31T11:01:45.534Z,90.38
2023-03-31T11:05:05.761Z,89.76
2023-03-31T11:08:09.786Z,90.73
2023-03-31T11:11:12.150Z,90.22
2023-03-31T11:13:56.368Z,89.95
2023-03-31T11:16:48.330Z,88.19
2023-03-31T11:19:28.662Z,88.13
2023-03-31T11:22:01.493Z,88.54
2023-03-31T11:24:44.819Z,86.76
2023-03-31T11:27:24.318Z,86.17
2023-03-31T11:30:12.419Z,86.68
2023-03-31T11:33:06.572Z,85.84
2023-03-31T11:35:59.613Z,86.78
2023-03-31T11:38:44.683Z,85.89
2023-03-31T11:41:17.526Z,86.74
2023-03-31T11:43:49.718Z,84.87
2023-03-31T11:46:19.064Z,86.45
2023-03-31T11:48:59.813Z,87.44
2023-03-31T11:51:38.833Z,87.58
2023-03-31T11:54:12.139Z,87.06
2023-03-31T11:56:41.394Z,88.15
2023-03-31T11:59:14.371Z,88.88
2023-03-31T12:02:07.416Z,90.16
2023-03-31T12:04:41.278Z,92.56
2023-03-31T12:07:26.699Z,93.66
2023-03-31T12:10:19.876Z,95.25
2023-03-31T12:13:01.829Z,94.65
2023-03-31T12:15:33.617Z,91.92
2023-03-31T12:18:08.657Z,92.73
2023-03-31T12:20:42.779Z,92.64
2023-03-31T12:23:17.406Z,93.17
2023-03-31T12:26:22.919Z,93.14
2023-03-31T12:28:58.462Z,95.30
2023-03-31T12:31:28.352Z,96.83
2023-03-31T12:34:00.744Z,98.58
2023-03-31T12:36:56.710Z,105.91
2023-03-31T12:40:01.250Z,108.33
2023-03-31T12:43:02.011Z,109.53
2023-03-31T12:45:31.392Z,110.46
2023-03-31T12:48:26.258Z,110.58
2023-03-31T12:51:10.144Z,111.04
2023-03-31T12:54:14.357Z,110.68
2023-03-31T12:57:13.241Z,110.07
2023-03-31T12:59:44.740Z,109.94
2023-03-31T13:02:21.638Z,108.81
2023-03-31T13:04:50.156Z,111.03
2023-03-31T13:07:29.256Z,110.05
2023-03-31T13:10:18.886Z,110.93
2023-03-31T13:13:02.693Z,111.20
2023-03-31T13:15:30.740Z,109.79
2023-03-31T13:18:06.368Z,112.93
2023-03-31T13:20:37.546Z,111.93
2023-03-31T13:23:19.586Z,112.90
2023-03-31T13:25:49.231Z,111.89
2023-03-31T13:28:48.482Z,109.59
2023-03-31T13:31:15.861Z,107.42
2023-03-31T13:34:01.073Z,108.63
2023-03-31T13:36:34.067Z,108.61
2023-03-31T13:39:49.094Z,110.17
2023-03-31T13:42:37.521Z,107.04
2023-03-31T13:45:47.004Z,106.41
2023-03-31T13:48:34.845Z,105.86
2023-03-31T13:51:31.568Z,102.05
2023-03-31T13:54:16.962Z,101.44
2023-03-31T13:56:58.784Z,97.96
2023-03-31T13:59:37.997Z,97.68
2023-03-31T14:02:23.694Z,97.96
2023-03-31T14:04:56.984Z,98.46
2023-03-31T14:07:40.863Z,99.12
2023-03-31T14:10:27.479Z,98.78
2023-03-31T14:13:08.721Z,97.31
2023-03-31T14:15:38.834Z,99.16
2023-03-31T14:18:07.487Z,97.29
2023-03-31T14:20:48.804Z,98.19
2023-03-31T14:23:31.920Z,97.63
2023-03-31T14:26:10.388Z,97.81
2023-03-31T14:29:11.211Z,98.69
2023-03-31T14:31:58.422Z,98.23
2023-03-31T14:34:43.125Z,99.06
2023-03-31T14:37:13.749Z,99.50
2023-03-31T14:39:44.482Z,95.21
2023-03-31T14:42:19.775Z,95.98
2023-03-31T14:44:48.571Z,95.92
2023-03-31T14:47:21.307Z,97.62
2023-03-31T14:49:58.921Z,96.97
2023-03-31T14:52:30.855Z,95.83
2023-03-31T14:54:59.723Z,96.86
2023-03-31T14:57:37.022Z,96.73
2023-03-31T15:00:08.383Z,98.09
2023-03-31T15:02:37.800Z,97.34
2023-03-31T15:05:07.650Z,97.97
2023-03-31T15:07:35.299Z,99.94
2023-03-31T15:10:04.979Z,98.96
2023-03-31T15:12:32.229Z,98.71
2023-03-31T15:15:04.380Z,98.27
2023-03-31T15:17:36.711Z,96.61
2023-03-31T15:20:36.512Z,96.81
2023-03-31T15:23:18.781Z,99.06
2023-03-31T15:25:45.949Z,99.07
2023-03-31T15:28:16.723Z,99.61
2023-03-31T15:30:46.639Z,99.05
2023-03-31T15:33:22.488Z,97.48
2023-03-31T15:35:49.552Z,99.28
2023-03-31T15:38:20.348Z,99.10
2023-03-31T15:40:55.972Z,98.13
2023-03-31T15:43:48.355Z,98.93
2023-03-31T15:46:39.895Z,96.39
2023-03-31T15:49:20.866Z,97.84
2023-03-31T15:51:48.456Z,97.03
2023-03-31T15:54:41.003Z,95.88
2023-03-31T15:57:09.440Z,96.75
2023-03-31T16:02:24.866Z,95.26
2023-03-31T16:04:56.982Z,96.26
2023-03-31T16:07:27.194Z,96.93
2023-03-31T16:09:56.933Z,97.00
2023-03-31T16:12:46.725Z,98.34
2023-03-31T16:15:28.321Z,99.09
2023-03-31T16:18:02.253Z,99.77
2023-03-31T16:20:37.046Z,99.00
2023-03-31T16:23:17.273Z,99.74
2023-03-31T16:25:44.887Z,100.38
2023-03-31T16:28:18.852Z,99.97
2023-03-31T16:30:46.375Z,100.48
2023-03-31T16:33:19.059Z,100.32
2023-03-31T16:35:56.146Z,100.74
2023-03-31T16:38:28.368Z,101.38
2023-03-31T16:40:57.399Z,101.13
2023-03-31T16:43:30.609Z,100.83
2023-03-31T16:46:03.478Z,102.57
2023-03-31T16:48:34.920Z,100.28
2023-03-31T16:51:02.059Z,101.38
2023-03-31T16:53:31.645Z,102.09
2023-03-31T16:55:58.451Z,102.93
2023-03-31T16:58:26.314Z,102.79
2023-03-31T17:00:53.968Z,102.00
2023-03-31T17:03:21.345Z,102.94
2023-03-31T17:05:52.792Z,104.53
2023-03-31T17:08:21.655Z,101.67
2023-03-31T17:11:11.014Z,102.22
2023-03-31T17:13:39.492Z,102.33
2023-03-31T17:16:17.524Z,101.87
2023-03-31T17:18:49.068Z,102.67
2023-03-31T17:21:19.862Z,103.22
2023-03-31T17:23:46.847Z,102.97
2023-03-31T17:26:14.413Z,103.22
2023-03-31T17:28:41.642Z,103.77
2023-03-31T17:31:27.290Z,104.07
2023-03-31T17:33:54.096Z,105.02
2023-03-31T17:36:22.257Z,105.47
2023-03-31T17:38:49.383Z,106.19
2023-03-31T17:41:17.767Z,105.93
2023-03-31T17:43:46.935Z,105.53
2023-03-31T17:46:14.116Z,106.53
2023-03-31T17:48:41.960Z,107.08
2023-03-31T17:51:13.615Z,107.30
2023-03-31T17:53:42.487Z,108.32
2023-03-31T17:56:09.882Z,109.36
2023-03-31T17:58:36.793Z,111.32
2023-03-31T18:01:05.924Z,111.48
2023-03-31T18:03:33.218Z,112.89
2023-03-31T18:06:09.030Z,114.29
2023-03-31T18:08:36.100Z,114.18
2023-03-31T18:11:05.037Z,114.90
2023-03-31T18:13:33.372Z,115.13
2023-03-31T18:16:00.488Z,114.89
2023-03-31T18:18:29.126Z,115.69
2023-03-31T18:20:56.283Z,116.94
2023-03-31T18:23:23.650Z,117.68
2023-03-31T18:25:50.450Z,117.57
2023-03-31T18:28:19.062Z,118.57
2023-03-31T18:30:47.502Z,117.50
2023-03-31T18:33:14.962Z,118.13
2023-03-31T18:35:42.223Z,118.99
2023-03-31T18:38:09.862Z,118.99
2023-03-31T18:40:37.726Z,118.99
2023-03-31T18:43:05.857Z,118.99
2023-03-31T18:45:32.998Z,118.99
2023-03-31T18:48:00.045Z,118.99
2023-03-31T18:50:26.988Z,118.99
2023-03-31T18:52:54.690Z,118.99
2023-03-31T18:55:23.226Z,118.99
2023-03-31T18:57:50.355Z,118.99
2023-03-31T19:00:18.963Z,118.99
2023-03-31T19:02:46.062Z,118.99
2023-03-31T19:05:12.961Z,118.99
2023-03-31T19:07:40.828Z,118.99
2023-03-31T19:10:08.637Z,118.99
2023-03-31T19:12:35.418Z,118.99
2023-03-31T19:15:02.409Z,118.99
2023-03-31T19:17:29.472Z,118.99
2023-03-31T19:19:56.656Z,118.99
2023-03-31T19:22:25.427Z,118.99
2023-03-31T19:24:52.434Z,118.99
2023-03-31T19:27:19.196Z,118.99
2023-03-31T19:29:46.146Z,118.99
2023-03-31T19:32:13.019Z,118.99
2023-03-31T19:34:39.951Z,118.99
2023-03-31T19:37:06.942Z,118.99
2023-03-31T19:39:33.785Z,118.99
2023-03-31T19:42:01.596Z,118.99
2023-03-31T19:44:29.468Z,118.99
2023-03-31T19:46:58.724Z,118.99
2023-03-31T19:49:25.859Z,118.99
2023-03-31T19:51:52.965Z,118.99
2023-03-31T19:54:19.847Z,118.99
2023-03-31T19:56:47.528Z,118.99
2023-03-31T19:59:14.453Z,118.99
2023-03-31T20:01:41.461Z,118.99
2023-03-31T20:04:08.749Z,118.99
2023-03-31T20:06:35.724Z,118.99
2023-03-31T20:09:06.182Z,118.99
2023-03-31T20:11:33.325Z,118.99
2023-03-31T20:14:00.644Z,118.99
2023-03-31T20:16:29.825Z,118.99
2023-03-31T20:18:58.470Z,118.99
2023-03-31T20:21:27.593Z,118.99
2023-03-31T20:23:54.915Z,118.99
2023-03-31T20:26:25.092Z,118.99
2023-03-31T20:28:53.237Z,118.99
2023-03-31T20:31:23.606Z,118.99
2023-03-31T20:33:52.784Z,118.99
2023-03-31T20:36:32.206Z,118.99
2023-03-31T20:39:00.295Z,118.99
2023-03-31T20:41:29.797Z,118.99
2023-03-31T20:43:57.878Z,118.99
2023-03-31T20:46:25.138Z,118.99
2023-03-31T20:48:55.907Z,118.99
2023-03-31T20:51:28.979Z,118.99
2023-03-31T20:53:57.631Z,118.99
2023-03-31T20:56:30.763Z,118.99
2023-03-31T20:58:59.098Z,118.99
2023-03-31T21:01:32.601Z,118.99
2023-03-31T21:04:01.351Z,118.99
2023-03-31T21:06:40.536Z,118.99
2023-03-31T21:09:08.098Z,118.99
2023-03-31T21:11:34.787Z,118.99
2023-03-31T21:14:02.402Z,118.99
2023-03-31T21:16:29.188Z,118.99
2023-03-31T21:18:57.037Z,118.99
2023-03-31T21:21:25.017Z,118.99
2023-03-31T21:23:52.143Z,118.99
2023-03-31T21:26:19.677Z,118.99
2023-03-31T21:28:46.739Z,118.99
2023-03-31T21:31:17.154Z,118.99
2023-03-31T21:33:46.679Z,118.99
2023-03-31T21:36:18.760Z,118.99
2023-03-31T21:38:45.707Z,118.99
2023-03-31T21:41:15.920Z,118.99
2023-03-31T21:43:43.766Z,118.99
2023-03-31T21:46:16.480Z,118.99
2023-03-31T21:48:43.663Z,118.99
2023-03-31T21:51:11.813Z,118.99
2023-03-31T21:53:38.607Z,118.99
2023-03-31T21:56:05.526Z,118.99
2023-03-31T21:58:32.892Z,118.99
2023-03-31T22:01:04.095Z,118.99
2023-03-31T22:03:34.391Z,118.99
2023-03-31T22:06:04.361Z,118.99
2023-03-31T22:08:31.713Z,118.99
2023-03-31T22:11:00.481Z,118.99
2023-03-31T22:13:28.444Z,118.99
2023-03-31T22:15:56.352Z,118.99
2023-03-31T22:18:23.717Z,118.99
2023-03-31T22:20:50.816Z,118.99
2023-03-31T22:23:20.526Z,118.99
2023-03-31T22:25:47.874Z,118.99
2023-03-31T22:28:16.646Z,118.99
2023-03-31T22:30:44.014Z,118.99
2023-03-31T22:33:10.859Z,118.99
2023-03-31T22:35:37.741Z,118.99
2023-03-31T22:38:06.202Z,118.99
2023-03-31T22:40:34.656Z,118.99
2023-03-31T22:43:01.638Z,118.99
2023-03-31T22:45:28.543Z,118.99
2023-03-31T22:47:55.476Z,118.99
2023-03-31T22:50:23.449Z,118.99
2023-03-31T22:52:50.339Z,118.99
2023-03-31T22:55:17.236Z,118.99
2023-03-31T22:57:44.562Z,118.99
2023-03-31T23:00:12.997Z,118.99
2023-03-31T23:02:40.725Z,118.99
2023-03-31T23:05:08.072Z,118.99
2023-03-31T23:07:35.065Z,118.99
2023-03-31T23:10:02.085Z,118.99
2023-03-31T23:12:29.128Z,118.99
2023-03-31T23:14:56.084Z,118.99
2023-03-31T23:17:22.943Z,118.99
2023-03-31T23:19:49.852Z,118.99
2023-03-31T23:22:16.749Z,118.99
2023-03-31T23:24:43.564Z,118.99
2023-03-31T23:27:10.732Z,118.99
2023-03-31T23:29:37.617Z,118.99
2023-03-31T23:32:04.877Z,118.99
2023-03-31T23:34:31.719Z,118.99
2023-03-31T23:36:58.503Z,118.99
2023-03-31T23:39:25.680Z,118.99
2023-03-31T23:41:53.443Z,118.99
2023-03-31T23:44:20.350Z,118.99
2023-03-31T23:46:47.213Z,118.99
2023-03-31T23:49:14.291Z,118.99
2023-03-31T23:51:41.437Z,118.99
2023-03-31T23:54:08.315Z,118.99
2023-03-31T23:56:35.284Z,118.99
2023-03-31T23:59:02.192Z,118.99
